Terminal Aerodrome Forecast
Issued by NWS

Current Version | Previous Version | Text Only | Print | Product List | Glossary On
Versions: 1 2 3 4 5 6 7 8 9 10 11 12 13 14 15 16 17 18 19 20 21 22
000
FTUS43 KMQT 290520
TAFIWD
TAF
KIWD 290520Z 2906/3006 22003KT 6SM -SN OVC015
     FM290800 27006KT 3SM -FZDZSN BR OVC004
     FM291100 30010G17KT 3SM -FZDZSN BR OVC006
     FM291300 32015G23KT 5SM -SHSN OVC012
     FM300100 33012KT P6SM -SHSN OVC015
      AMD LTD TO CLD VIS AND WIND=

USA.gov is the U.S. government's official web portal to all federal, state and local government web resources and services.